Overview Statistics Trail Chart Weather Telemetry Raw packets
 

This is the latest recevied weather packets stored in our database for station/object W0AKY-13. If no packets are shown the sender has not sent any weather packets the latest 10 day(s).

<< 63 64 65 66 67 68 69 >>
Time Temp. Humidity Pressure Rain* Wind** Luminosity Snow
1788106109 31.11° C 62% 1011.9 hPa 0 mm - 236 W/m² -
1788105804 30.56° C 63% 1011.9 hPa 0 mm - 518 W/m² -
1788105500 30.56° C 60% 1011.7 hPa 0 mm - 233 W/m² -
1788105196 31.11° C 60% 1011.9 hPa 0 mm - 458 W/m² -
1788104896 30° C 60% 1012.1 hPa 0 mm - 448 W/m² -
1788104592 29.44° C 65% 1012.1 hPa 0 mm - 354 W/m² -
1788104289 30° C 66% 1012 hPa 0 mm - 125 W/m² -
1788103984 30.56° C 62% 1012.2 hPa 0 mm - 157 W/m² -
1788103683 30° C 63% 1011.9 hPa 0 mm - 419 W/m² -
1788103377 29.44° C 64% 1012 hPa 0 mm - 344 W/m² -
1788103077 28.89° C 67% 1011.7 hPa 0 mm - 348 W/m² -
1788102776 28.89° C 68% 1012.1 hPa 0 mm - 280 W/m² -
1788102471 28.33° C 72% 1012.1 hPa 0 mm - 263 W/m² -
1788102171 28.33° C 72% 1011.9 hPa 0 mm - 257 W/m² -
1788101866 28.33° C 70% 1012 hPa 0 mm - 62 W/m² -
1788101561 28.33° C 70% 1011.8 hPa 0 mm - 290 W/m² -
1788101256 27.22° C 74% 1012 hPa 0 mm - 221 W/m² -
1788100952 27.22° C 73% 1011.9 hPa 0 mm - 160 W/m² -
1788100648 26.11° C 75% 1012 hPa 0 mm - 214 W/m² -
1788098469 23.33° C 85% 1011.5 hPa 0 mm - 49 W/m² -
1788098164 23.33° C 85% 1011.5 hPa 0 mm - 49 W/m² -
1788097860 23.33° C 87% 1011.2 hPa 0 mm - 37 W/m² -
1788097556 22.78° C 91% 1011.3 hPa 0 mm - 31 W/m² -
1788097255 22.78° C 93% 1011.6 hPa 0 mm - 29 W/m² -
1788096951 22.78° C 95% 1011.5 hPa 0 mm - 36 W/m² -

* Rain latest hour (hover to see other rain measurements)
** Current wind speed in m/s (hover to see current wind gust speed)